Time;durP1;ratioP1;P1;durP2;ratioP2;P2;SDS_P1;SDS_P2;PMS_P1;PMS_P2;Temp;Humidity;BMP_temperature;BMP_pressure;BME280_temperature;BME280_humidity;BME280_pressure;Samples;Min_cycle;Max_cycle;Signal;HPM_P1;HPM_P2
2021/12/01 00:01:54;;;;;;;;;;;5.20;99.90;;;;;;5048793;28;19964;-80
2021/12/01 00:04:21;;;;;;;;;;;5.20;99.90;;;;;;5047922;28;19978;-80
2021/12/01 00:06:48;;;;;;;;;;;5.20;99.90;;;;;;5057953;28;19920;-80
2021/12/01 00:09:14;;;;;;;;;;;5.10;99.90;;;;;;5068647;28;19930;-79
2021/12/01 00:11:41;;;;;;;;;;;5.10;99.90;;;;;;5057925;28;20386;-80
2021/12/01 00:14:15;;;;;;;;;;;5.10;99.90;;;;;;5051625;28;19943;-80
2021/12/01 00:16:42;;;;;;;;;;;5.00;99.90;;;;;;5048965;28;19980;-80
2021/12/01 00:19:12;;;;;;;;;;;5.00;99.90;;;;;;5051795;28;19921;-80
2021/12/01 00:21:38;;;;;;;;;;;4.90;99.90;;;;;;5051881;28;20349;-80
2021/12/01 00:24:05;;;;;;;;;;;4.90;99.90;;;;;;5048452;28;19977;-80
2021/12/01 00:26:32;;;;;;;;;;;4.90;99.90;;;;;;5049298;28;19920;-80
2021/12/01 00:28:59;;;;;;;;;;;4.90;99.90;;;;;;5060644;28;20391;-80
2021/12/01 00:31:25;;;;;;;;;;;4.90;99.90;;;;;;5051272;28;20031;-80
2021/12/01 00:33:52;;;;;;;;;;;4.90;99.90;;;;;;5050583;28;19921;-80
2021/12/01 00:36:19;;;;;;;;;;;4.90;99.90;;;;;;5061855;28;20035;-80
2021/12/01 00:38:46;;;;;;;;;;;4.90;99.90;;;;;;5048001;28;19920;-80
2021/12/01 00:41:14;;;;;;;;;;;4.90;99.90;;;;;;5049597;28;19939;-80
2021/12/01 00:43:41;;;;;;;;;;;4.90;99.90;;;;;;5048749;28;19931;-80
2021/12/01 00:46:20;;;;;;;;;;;4.90;99.90;;;;;;5049408;28;19920;-80
2021/12/01 00:48:47;;;;;;;;;;;4.90;99.90;;;;;;5047032;28;20349;-80
2021/12/01 00:51:16;;;;;;;;;;;4.90;99.90;;;;;;5048636;28;20011;-80
2021/12/01 00:53:43;;;;;;;;;;;4.90;99.90;;;;;;5045254;28;20375;-80
2021/12/01 00:56:10;;;;;;;;;;;4.90;99.90;;;;;;5046791;28;19927;-80
2021/12/01 00:58:37;;;;;;;;;;;4.80;99.90;;;;;;5048048;28;19960;-80
2021/12/01 01:01:04;;;;;;;;;;;4.80;99.90;;;;;;5048630;28;19925;-80
2021/12/01 01:03:31;;;;;;;;;;;4.80;99.90;;;;;;5048331;28;19925;-80
2021/12/01 01:05:58;;;;;;;;;;;4.80;99.90;;;;;;5045390;28;19964;-81
2021/12/01 01:08:24;;;;;;;;;;;4.80;99.90;;;;;;5041490;28;20298;-81
2021/12/01 01:16:25;;;;;;;;;;;4.80;99.90;;;;;;5048181;28;19930;-81
2021/12/01 01:19:02;;;;;;;;;;;4.80;99.90;;;;;;5044941;28;20014;-80
2021/12/01 01:21:33;;;;;;;;;;;4.80;99.90;;;;;;5042431;28;20367;-81
2021/12/01 01:24:00;;;;;;;;;;;4.80;99.90;;;;;;5045174;28;20381;-81
2021/12/01 01:26:28;;;;;;;;;;;4.80;99.90;;;;;;5048058;28;19954;-81
2021/12/01 01:28:55;;;;;;;;;;;4.80;99.90;;;;;;5047394;28;19924;-80
2021/12/01 01:31:22;;;;;;;;;;;4.90;99.90;;;;;;5047417;28;19931;-80
2021/12/01 01:33:49;;;;;;;;;;;4.80;99.90;;;;;;5046644;28;19934;-80
2021/12/01 01:36:16;;;;;;;;;;;4.80;99.90;;;;;;5062071;28;20012;-80
2021/12/01 01:38:46;;;;;;;;;;;4.80;99.90;;;;;;5044410;28;19920;-80
2021/12/01 01:41:13;;;;;;;;;;;4.80;99.90;;;;;;5044484;28;19935;-80
2021/12/01 01:43:43;;;;;;;;;;;4.80;99.90;;;;;;5048327;28;19970;-80
2021/12/01 01:46:11;;;;;;;;;;;4.80;99.90;;;;;;5047592;28;20407;-80
2021/12/01 01:48:54;;;;;;;;;;;4.80;99.90;;;;;;5060961;28;19924;-80
2021/12/01 01:51:25;;;;;;;;;;;4.70;99.90;;;;;;5041014;28;19960;-80
2021/12/01 01:53:54;;;;;;;;;;;4.70;99.90;;;;;;5045033;28;19960;-80
2021/12/01 01:56:21;;;;;;;;;;;4.70;99.90;;;;;;5046408;28;20019;-79
2021/12/01 01:58:48;;;;;;;;;;;4.70;99.90;;;;;;5041804;28;19926;-80
2021/12/01 02:03:54;;;;;;;;;;;4.70;99.90;;;;;;5041301;28;20494;-80
2021/12/01 02:06:23;;;;;;;;;;;4.70;99.90;;;;;;5044802;28;20020;-79
2021/12/01 02:08:51;;;;;;;;;;;4.70;99.90;;;;;;5041915;28;20012;-79
2021/12/01 02:11:20;;;;;;;;;;;4.70;99.90;;;;;;5048598;28;19927;-79
2021/12/01 02:13:47;;;;;;;;;;;4.70;99.90;;;;;;5036317;28;19921;-80
2021/12/01 02:16:15;;;;;;;;;;;4.70;99.90;;;;;;5047009;28;20396;-80
2021/12/01 02:18:44;;;;;;;;;;;4.70;99.90;;;;;;5047229;28;20375;-80
2021/12/01 02:21:13;;;;;;;;;;;4.70;99.90;;;;;;5046079;28;19944;-79
2021/12/01 02:23:41;;;;;;;;;;;4.70;99.90;;;;;;5040033;28;20480;-80
2021/12/01 02:26:09;;;;;;;;;;;4.80;99.90;;;;;;5047292;28;20029;-80
2021/12/01 02:28:36;;;;;;;;;;;4.80;99.90;;;;;;5047749;28;19931;-80
2021/12/01 02:31:03;;;;;;;;;;;4.80;99.90;;;;;;5050141;28;19929;-80
2021/12/01 02:33:30;;;;;;;;;;;4.80;99.90;;;;;;5049407;28;19927;-80
2021/12/01 02:35:56;;;;;;;;;;;4.80;99.90;;;;;;5050372;28;19951;-80
2021/12/01 02:38:23;;;;;;;;;;;4.80;99.90;;;;;;5042640;28;19921;-80
2021/12/01 02:40:50;;;;;;;;;;;4.80;99.90;;;;;;5067106;28;20047;-80
2021/12/01 02:43:17;;;;;;;;;;;4.80;99.90;;;;;;5042868;28;19921;-80
2021/12/01 02:45:44;;;;;;;;;;;4.90;99.90;;;;;;5048076;28;19924;-79
2021/12/01 02:48:14;;;;;;;;;;;4.90;99.90;;;;;;5050513;28;20397;-80
2021/12/01 02:50:43;;;;;;;;;;;4.90;99.90;;;;;;5048645;28;19921;-80
2021/12/01 02:53:10;;;;;;;;;;;4.90;99.90;;;;;;5050788;28;19942;-80
2021/12/01 02:55:40;;;;;;;;;;;4.90;99.90;;;;;;5048924;28;20335;-80
2021/12/01 02:58:06;;;;;;;;;;;4.90;99.90;;;;;;5042989;28;19921;-80
2021/12/01 03:00:36;;;;;;;;;;;4.90;99.90;;;;;;5049482;28;19936;-80
2021/12/01 03:03:03;;;;;;;;;;;4.90;99.90;;;;;;5048837;28;19920;-80
2021/12/01 03:05:30;;;;;;;;;;;4.90;99.90;;;;;;5047662;28;20004;-80
2021/12/01 03:07:59;;;;;;;;;;;4.90;99.90;;;;;;5044053;28;19944;-80
2021/12/01 03:10:28;;;;;;;;;;;4.90;99.90;;;;;;5044236;28;19974;-80
2021/12/01 03:12:55;;;;;;;;;;;4.90;99.90;;;;;;5050999;28;19924;-80
2021/12/01 03:15:22;;;;;;;;;;;4.90;99.90;;;;;;5036864;28;20020;-80
2021/12/01 03:17:49;;;;;;;;;;;4.90;99.90;;;;;;5044057;28;20019;-80
2021/12/01 03:20:20;;;;;;;;;;;4.90;99.90;;;;;;5044941;28;19935;-80
2021/12/01 03:22:47;;;;;;;;;;;4.90;99.90;;;;;;5043736;28;20258;-80
2021/12/01 03:25:14;;;;;;;;;;;4.90;99.90;;;;;;5044730;28;20394;-80
2021/12/01 03:27:41;;;;;;;;;;;4.90;99.90;;;;;;5045184;28;19995;-80
2021/12/01 03:30:09;;;;;;;;;;;4.90;99.90;;;;;;5048236;28;19920;-80
2021/12/01 03:32:36;;;;;;;;;;;4.90;99.90;;;;;;5043452;28;20245;-80
2021/12/01 03:35:07;;;;;;;;;;;4.90;99.90;;;;;;5043598;28;19923;-80
2021/12/01 03:37:35;;;;;;;;;;;4.90;99.90;;;;;;5042193;28;19921;-80
2021/12/01 03:40:02;;;;;;;;;;;4.90;99.90;;;;;;5042112;28;20298;-80
2021/12/01 03:42:29;;;;;;;;;;;4.90;99.90;;;;;;5046844;28;19934;-79
2021/12/01 03:44:56;;;;;;;;;;;5.00;99.90;;;;;;5048912;28;20251;-79
2021/12/01 03:47:24;;;;;;;;;;;5.00;99.90;;;;;;5048945;28;20004;-80
2021/12/01 03:49:50;;;;;;;;;;;4.90;99.90;;;;;;5049186;28;19931;-80
2021/12/01 03:52:17;;;;;;;;;;;5.00;99.90;;;;;;5043926;28;19952;-80
2021/12/01 03:54:45;;;;;;;;;;;5.00;99.90;;;;;;5032097;28;20008;-79
2021/12/01 03:57:12;;;;;;;;;;;5.00;99.90;;;;;;5047192;28;19926;-79
2021/12/01 03:59:39;;;;;;;;;;;5.00;99.90;;;;;;5042846;28;19927;-80
2021/12/01 04:02:05;;;;;;;;;;;5.00;99.90;;;;;;5045473;28;19931;-80
2021/12/01 04:04:32;;;;;;;;;;;5.10;99.90;;;;;;5037027;28;19921;-80
2021/12/01 04:06:59;;;;;;;;;;;5.10;99.90;;;;;;5040535;28;20563;-79
2021/12/01 04:09:26;;;;;;;;;;;5.20;99.90;;;;;;5040716;28;20391;-80
2021/12/01 04:11:53;;;;;;;;;;;5.20;99.90;;;;;;5047291;28;19933;-80
2021/12/01 04:14:23;;;;;;;;;;;5.30;99.90;;;;;;5048917;28;19921;-81
2021/12/01 04:16:49;;;;;;;;;;;5.30;99.90;;;;;;5046170;28;20283;-80
2021/12/01 04:19:16;;;;;;;;;;;5.30;99.90;;;;;;5049003;28;19921;-80
2021/12/01 04:21:43;;;;;;;;;;;5.20;99.90;;;;;;5045118;28;19927;-79
2021/12/01 04:24:10;;;;;;;;;;;5.20;99.90;;;;;;5058415;28;20406;-80
2021/12/01 04:26:37;;;;;;;;;;;5.30;99.90;;;;;;5047483;28;19921;-80
2021/12/01 04:29:04;;;;;;;;;;;5.20;99.90;;;;;;5039550;28;20024;-80
2021/12/01 04:31:33;;;;;;;;;;;5.20;99.90;;;;;;5046964;28;19943;-80
2021/12/01 04:34:01;;;;;;;;;;;5.20;99.90;;;;;;5044060;28;20375;-80
2021/12/01 04:36:32;;;;;;;;;;;5.30;99.90;;;;;;5046343;28;20298;-80
2021/12/01 04:38:59;;;;;;;;;;;5.30;99.90;;;;;;5045097;28;20202;-79
2021/12/01 04:41:28;;;;;;;;;;;5.30;99.90;;;;;;5041511;28;19939;-79
2021/12/01 04:43:55;;;;;;;;;;;5.30;99.90;;;;;;5047687;28;20423;-80
2021/12/01 04:46:21;;;;;;;;;;;5.30;99.90;;;;;;5046330;28;19921;-79
2021/12/01 04:48:48;;;;;;;;;;;5.30;99.90;;;;;;5047670;28;19924;-80
2021/12/01 04:51:17;;;;;;;;;;;5.30;99.90;;;;;;5048918;28;19927;-80
2021/12/01 04:53:46;;;;;;;;;;;5.30;99.90;;;;;;5048011;28;19920;-80
2021/12/01 04:56:15;;;;;;;;;;;5.30;99.90;;;;;;5043507;28;19923;-80
2021/12/01 04:58:42;;;;;;;;;;;5.40;99.90;;;;;;5038627;28;20470;-80
2021/12/01 05:01:09;;;;;;;;;;;5.40;99.90;;;;;;5048697;28;19927;-80
2021/12/01 05:03:36;;;;;;;;;;;5.40;99.90;;;;;;5047667;28;20147;-80
2021/12/01 05:06:03;;;;;;;;;;;5.40;99.90;;;;;;5044846;28;20383;-80
2021/12/01 05:08:29;;;;;;;;;;;5.40;99.90;;;;;;5041161;28;19920;-80
2021/12/01 05:10:56;;;;;;;;;;;5.40;99.90;;;;;;5048214;28;20302;-80
2021/12/01 05:13:22;;;;;;;;;;;5.40;99.90;;;;;;5047148;28;20007;-80
2021/12/01 05:15:49;;;;;;;;;;;5.40;99.90;;;;;;5048973;28;19967;-80
2021/12/01 05:18:16;;;;;;;;;;;5.40;99.90;;;;;;5047486;28;19925;-80
2021/12/01 05:20:43;;;;;;;;;;;5.40;99.90;;;;;;5049600;28;19920;-80
2021/12/01 05:23:12;;;;;;;;;;;5.40;99.90;;;;;;5044192;28;19927;-79
2021/12/01 05:25:41;;;;;;;;;;;5.40;99.90;;;;;;5047889;28;19974;-79
2021/12/01 05:28:08;;;;;;;;;;;5.40;99.90;;;;;;5043940;28;20012;-80
2021/12/01 05:30:35;;;;;;;;;;;5.40;99.90;;;;;;5047383;28;19921;-80
2021/12/01 05:33:06;;;;;;;;;;;5.40;99.90;;;;;;5048283;28;20030;-80
2021/12/01 05:35:33;;;;;;;;;;;5.40;99.90;;;;;;5046130;28;19941;-80
2021/12/01 05:38:00;;;;;;;;;;;5.40;99.90;;;;;;5048010;28;20544;-80
2021/12/01 05:40:27;;;;;;;;;;;5.40;99.90;;;;;;5042737;28;20007;-80
2021/12/01 05:42:54;;;;;;;;;;;5.40;99.90;;;;;;5044308;28;20394;-79
2021/12/01 05:45:20;;;;;;;;;;;5.30;99.90;;;;;;5044703;28;20375;-78
2021/12/01 05:47:47;;;;;;;;;;;5.30;99.90;;;;;;5039965;28;20314;-78
2021/12/01 05:50:17;;;;;;;;;;;5.40;99.90;;;;;;5044286;28;20019;-78
2021/12/01 05:52:43;;;;;;;;;;;5.40;99.90;;;;;;5041071;28;19967;-78
2021/12/01 05:55:10;;;;;;;;;;;5.40;99.90;;;;;;5044221;28;19966;-78
2021/12/01 05:57:37;;;;;;;;;;;5.40;99.90;;;;;;5040611;28;20351;-79
2021/12/01 06:00:05;;;;;;;;;;;5.40;99.90;;;;;;5043938;28;20213;-78
2021/12/01 06:02:35;;;;;;;;;;;5.30;99.90;;;;;;5045783;28;19921;-78
2021/12/01 06:05:02;;;;;;;;;;;5.40;99.90;;;;;;5046645;28;20004;-78
2021/12/01 06:07:29;;;;;;;;;;;5.40;99.90;;;;;;5044860;28;19933;-79
2021/12/01 06:10:00;;;;;;;;;;;5.40;99.90;;;;;;5040644;28;19931;-75
2021/12/01 06:12:26;;;;;;;;;;;5.50;99.90;;;;;;5047069;28;19939;-75
2021/12/01 06:14:54;;;;;;;;;;;5.50;99.90;;;;;;5058714;28;20413;-75
2021/12/01 06:17:21;;;;;;;;;;;5.40;99.90;;;;;;5044523;28;19989;-74
2021/12/01 06:19:48;;;;;;;;;;;5.40;99.90;;;;;;5045736;28;20006;-74
2021/12/01 06:22:14;;;;;;;;;;;5.40;99.90;;;;;;5045811;28;20363;-75
2021/12/01 06:24:41;;;;;;;;;;;5.50;99.90;;;;;;5039204;28;19920;-75
2021/12/01 06:27:11;;;;;;;;;;;5.50;99.90;;;;;;5041696;28;19921;-75
2021/12/01 06:29:38;;;;;;;;;;;5.50;99.90;;;;;;5038317;28;20433;-75
2021/12/01 06:32:04;;;;;;;;;;;5.50;99.90;;;;;;5042830;28;19931;-75
2021/12/01 06:34:31;;;;;;;;;;;5.60;99.90;;;;;;5043134;28;20045;-75
2021/12/01 06:36:58;;;;;;;;;;;5.60;99.90;;;;;;5045061;28;19931;-75
2021/12/01 06:39:26;;;;;;;;;;;5.60;99.90;;;;;;5043319;28;20050;-75
2021/12/01 06:41:54;;;;;;;;;;;5.60;99.90;;;;;;5041932;28;20292;-75
2021/12/01 06:44:24;;;;;;;;;;;5.60;99.90;;;;;;5042639;28;19990;-75
2021/12/01 06:46:51;;;;;;;;;;;5.60;99.90;;;;;;5043665;28;19921;-73
2021/12/01 06:49:20;;;;;;;;;;;5.60;99.90;;;;;;5046495;28;20386;-74
2021/12/01 06:51:47;;;;;;;;;;;5.60;99.90;;;;;;5040871;28;20298;-74
2021/12/01 06:54:14;;;;;;;;;;;5.60;99.90;;;;;;5045698;28;19921;-76
2021/12/01 06:56:41;;;;;;;;;;;5.60;99.90;;;;;;5037473;28;19931;-74
2021/12/01 06:59:08;;;;;;;;;;;5.50;99.90;;;;;;5040006;28;19927;-74
2021/12/01 07:01:34;;;;;;;;;;;5.50;99.90;;;;;;5040757;28;19978;-75
2021/12/01 07:04:01;;;;;;;;;;;5.60;99.90;;;;;;5042264;28;19960;-75
2021/12/01 07:06:28;;;;;;;;;;;5.60;99.90;;;;;;5040684;28;19931;-74
2021/12/01 07:08:59;;;;;;;;;;;5.60;99.90;;;;;;5042556;28;20012;-74
2021/12/01 07:11:26;;;;;;;;;;;5.60;99.90;;;;;;5034280;28;19931;-74
2021/12/01 07:13:53;;;;;;;;;;;5.50;99.90;;;;;;5041891;28;19927;-75
2021/12/01 07:16:23;;;;;;;;;;;5.50;99.90;;;;;;5046488;28;19927;-75
2021/12/01 07:18:49;;;;;;;;;;;5.60;99.90;;;;;;5045611;28;19967;-75
2021/12/01 07:21:16;;;;;;;;;;;5.60;99.90;;;;;;5047038;28;20027;-76
2021/12/01 07:23:43;;;;;;;;;;;5.60;99.90;;;;;;5048377;28;20378;-75
2021/12/01 07:26:10;;;;;;;;;;;5.60;99.90;;;;;;5046691;28;19925;-75
2021/12/01 07:28:36;;;;;;;;;;;5.60;99.90;;;;;;5047153;28;20378;-75
2021/12/01 07:31:03;;;;;;;;;;;5.60;99.90;;;;;;5045670;28;20007;-75
2021/12/01 07:33:30;;;;;;;;;;;5.70;99.90;;;;;;5041168;28;19928;-75
2021/12/01 07:35:57;;;;;;;;;;;5.70;99.90;;;;;;5044556;28;19925;-75
2021/12/01 07:38:24;;;;;;;;;;;5.70;99.90;;;;;;5044572;28;19920;-75
2021/12/01 07:40:52;;;;;;;;;;;5.70;99.90;;;;;;5041490;28;20517;-74
2021/12/01 07:43:19;;;;;;;;;;;5.70;99.90;;;;;;5048457;28;19921;-75
2021/12/01 07:45:45;;;;;;;;;;;5.80;99.90;;;;;;5049094;28;19927;-75
2021/12/01 07:48:13;;;;;;;;;;;5.80;99.90;;;;;;5045603;28;20431;-75
2021/12/01 07:50:40;;;;;;;;;;;5.80;99.90;;;;;;5054565;28;20335;-75
2021/12/01 07:53:07;;;;;;;;;;;5.90;99.90;;;;;;5034030;28;20398;-76
2021/12/01 07:55:33;;;;;;;;;;;5.90;99.90;;;;;;5046255;28;19960;-75
2021/12/01 07:58:01;;;;;;;;;;;6.00;99.90;;;;;;5044395;28;19927;-75
2021/12/01 08:00:28;;;;;;;;;;;6.00;99.90;;;;;;5046477;28;20027;-75
2021/12/01 08:02:55;;;;;;;;;;;6.00;99.90;;;;;;5044177;28;20000;-75
2021/12/01 08:05:22;;;;;;;;;;;6.00;99.90;;;;;;5046255;28;20254;-75
2021/12/01 08:07:51;;;;;;;;;;;6.00;99.90;;;;;;5044507;28;19958;-75
2021/12/01 08:10:18;;;;;;;;;;;6.10;99.90;;;;;;5048824;28;19920;-76
2021/12/01 08:12:45;;;;;;;;;;;6.00;99.90;;;;;;5050557;28;19924;-76
2021/12/01 08:15:11;;;;;;;;;;;6.00;99.90;;;;;;5045150;28;19950;-76
2021/12/01 08:17:38;;;;;;;;;;;6.00;99.90;;;;;;5046564;28;19931;-76
2021/12/01 08:20:05;;;;;;;;;;;6.00;99.90;;;;;;5057655;28;19983;-76
2021/12/01 08:22:32;;;;;;;;;;;6.00;99.90;;;;;;5041601;28;19920;-76
2021/12/01 08:24:58;;;;;;;;;;;6.00;99.90;;;;;;5047567;28;20523;-76
2021/12/01 08:27:26;;;;;;;;;;;6.00;99.90;;;;;;5048904;28;20017;-76
2021/12/01 08:29:53;;;;;;;;;;;6.10;99.90;;;;;;5043826;28;19920;-76
2021/12/01 08:32:20;;;;;;;;;;;6.00;99.90;;;;;;5047764;28;19975;-76
2021/12/01 08:34:51;;;;;;;;;;;6.00;99.90;;;;;;5047394;28;19931;-76
2021/12/01 08:37:23;;;;;;;;;;;6.10;99.90;;;;;;5046905;28;19944;-76
2021/12/01 08:39:53;;;;;;;;;;;6.10;99.90;;;;;;5044037;28;20502;-76
2021/12/01 08:42:23;;;;;;;;;;;6.10;99.90;;;;;;5036293;28;20389;-76
2021/12/01 08:44:50;;;;;;;;;;;6.00;99.90;;;;;;5038617;28;20185;-76
2021/12/01 08:47:24;;;;;;;;;;;6.00;99.90;;;;;;5038102;28;19947;-76
2021/12/01 08:49:52;;;;;;;;;;;6.00;99.90;;;;;;5045062;28;19964;-76
2021/12/01 08:52:18;;;;;;;;;;;6.00;99.90;;;;;;5044174;28;20015;-76
2021/12/01 08:54:45;;;;;;;;;;;6.00;99.90;;;;;;5048390;28;19931;-76
2021/12/01 08:57:12;;;;;;;;;;;6.00;99.90;;;;;;5046539;28;20279;-76
2021/12/01 08:59:39;;;;;;;;;;;6.00;99.90;;;;;;5046052;28;20042;-76
2021/12/01 09:02:07;;;;;;;;;;;6.00;99.90;;;;;;5048768;28;19979;-76
2021/12/01 09:04:35;;;;;;;;;;;6.00;99.90;;;;;;5045838;28;19967;-76
2021/12/01 09:07:03;;;;;;;;;;;5.90;99.90;;;;;;5046378;28;20338;-76
2021/12/01 09:09:29;;;;;;;;;;;5.90;99.90;;;;;;5047634;28;20604;-76
2021/12/01 09:11:56;;;;;;;;;;;5.90;99.90;;;;;;5045270;28;19951;-76
2021/12/01 09:14:23;;;;;;;;;;;5.90;99.90;;;;;;5047733;28;20007;-76
2021/12/01 09:16:52;;;;;;;;;;;5.90;99.90;;;;;;5042176;28;19931;-76
2021/12/01 09:19:19;;;;;;;;;;;5.90;99.90;;;;;;5040952;28;20484;-76
2021/12/01 09:21:47;;;;;;;;;;;5.90;99.90;;;;;;5041478;28;20362;-76
2021/12/01 09:24:14;;;;;;;;;;;6.00;99.90;;;;;;5035155;28;20020;-76
2021/12/01 09:26:42;;;;;;;;;;;6.00;99.90;;;;;;5042549;28;19931;-76
2021/12/01 09:29:09;;;;;;;;;;;6.10;99.90;;;;;;5043891;28;20029;-76
2021/12/01 09:31:36;;;;;;;;;;;6.10;99.90;;;;;;5046746;28;19925;-76
2021/12/01 09:34:05;;;;;;;;;;;6.10;99.90;;;;;;5051923;28;19932;-76
2021/12/01 09:36:32;;;;;;;;;;;6.10;99.90;;;;;;5045185;28;20019;-76
2021/12/01 09:38:59;;;;;;;;;;;6.10;99.90;;;;;;5046071;28;20359;-76
2021/12/01 09:41:26;;;;;;;;;;;6.10;99.90;;;;;;5049401;28;19947;-75
2021/12/01 09:43:52;;;;;;;;;;;6.20;99.90;;;;;;5041305;28;19931;-74
2021/12/01 09:46:19;;;;;;;;;;;6.20;99.90;;;;;;5042272;28;19933;-74
2021/12/01 09:48:47;;;;;;;;;;;6.30;99.90;;;;;;5047092;28;19925;-74
2021/12/01 09:51:15;;;;;;;;;;;6.30;99.90;;;;;;5046822;28;19925;-75
2021/12/01 09:53:41;;;;;;;;;;;6.40;99.90;;;;;;5045225;28;20007;-75
2021/12/01 09:56:08;;;;;;;;;;;6.40;99.90;;;;;;5046694;28;19928;-75
2021/12/01 09:58:35;;;;;;;;;;;6.50;99.90;;;;;;5045298;28;20000;-75
2021/12/01 10:01:04;;;;;;;;;;;6.50;99.90;;;;;;5060195;28;20015;-75
2021/12/01 10:03:31;;;;;;;;;;;6.60;99.90;;;;;;5043072;28;20003;-75
2021/12/01 10:06:07;;;;;;;;;;;6.70;99.90;;;;;;5044323;28;19939;-75
2021/12/01 10:08:35;;;;;;;;;;;6.70;99.90;;;;;;5044400;28;20252;-75
2021/12/01 10:11:04;;;;;;;;;;;6.70;99.90;;;;;;5046088;28;19924;-75
2021/12/01 10:13:32;;;;;;;;;;;6.70;99.90;;;;;;5047919;28;19970;-74
2021/12/01 10:16:01;;;;;;;;;;;6.70;99.90;;;;;;5043943;28;19925;-75
2021/12/01 10:18:29;;;;;;;;;;;6.80;99.90;;;;;;5047172;28;19931;-75
2021/12/01 10:21:16;;;;;;;;;;;6.90;99.90;;;;;;5044407;28;19955;-75
2021/12/01 10:23:53;;;;;;;;;;;7.00;99.90;;;;;;5045051;28;20014;-75
2021/12/01 10:26:22;;;;;;;;;;;7.20;99.90;;;;;;5041988;28;20580;-75
2021/12/01 10:29:09;;;;;;;;;;;7.30;99.90;;;;;;5041010;28;20436;-75
2021/12/01 10:31:41;;;;;;;;;;;7.30;99.90;;;;;;5042098;28;19935;-76
2021/12/01 10:34:15;;;;;;;;;;;7.40;99.90;;;;;;5037020;28;19939;-75
2021/12/01 10:36:42;;;;;;;;;;;7.40;99.90;;;;;;5042220;28;19971;-74
2021/12/01 10:39:09;;;;;;;;;;;7.40;99.90;;;;;;5045841;28;19929;-75
2021/12/01 10:41:40;;;;;;;;;;;7.40;99.90;;;;;;5047737;28;20342;-75
2021/12/01 10:44:08;;;;;;;;;;;7.50;99.90;;;;;;5037676;28;19936;-75
2021/12/01 10:46:43;;;;;;;;;;;7.50;99.90;;;;;;5042809;28;19979;-75
2021/12/01 10:49:09;;;;;;;;;;;7.50;99.90;;;;;;5043430;28;19924;-75
2021/12/01 10:51:40;;;;;;;;;;;7.50;99.90;;;;;;5047958;28;19931;-75
2021/12/01 10:54:18;;;;;;;;;;;7.60;99.90;;;;;;5045628;28;19935;-75
2021/12/01 10:57:08;;;;;;;;;;;7.70;99.90;;;;;;5045402;28;19969;-75
2021/12/01 10:59:43;;;;;;;;;;;7.80;99.90;;;;;;5043828;28;20012;-75
2021/12/01 11:02:10;;;;;;;;;;;7.90;99.90;;;;;;5049619;28;19935;-75
2021/12/01 11:04:41;;;;;;;;;;;8.00;99.90;;;;;;5046574;28;20008;-75
2021/12/01 11:07:22;;;;;;;;;;;8.00;99.90;;;;;;5050857;28;19931;-75
2021/12/01 11:10:07;;;;;;;;;;;8.00;99.90;;;;;;5047825;28;20382;-75
2021/12/01 11:12:37;;;;;;;;;;;8.00;99.90;;;;;;5047610;28;20301;-75
2021/12/01 11:15:19;;;;;;;;;;;8.00;99.90;;;;;;5048283;28;19978;-75
2021/12/01 11:17:50;;;;;;;;;;;8.00;99.90;;;;;;5048729;28;19929;-75
2021/12/01 11:20:35;;;;;;;;;;;8.10;99.90;;;;;;5048206;28;19931;-74
2021/12/01 11:23:12;;;;;;;;;;;8.30;99.90;;;;;;5036507;28;19932;-75
2021/12/01 11:25:44;;;;;;;;;;;8.20;99.90;;;;;;5061751;28;19944;-74
2021/12/01 11:28:15;;;;;;;;;;;8.10;99.90;;;;;;5047777;28;19937;-75
2021/12/01 11:30:44;;;;;;;;;;;8.10;99.90;;;;;;5041840;28;19925;-75
2021/12/01 11:33:13;;;;;;;;;;;8.10;99.90;;;;;;5041025;28;20374;-75
2021/12/01 11:35:41;;;;;;;;;;;8.10;99.90;;;;;;5046110;28;19963;-75
2021/12/01 11:38:09;;;;;;;;;;;8.10;99.90;;;;;;5044877;28;19929;-75
2021/12/01 11:40:36;;;;;;;;;;;8.00;99.90;;;;;;5044704;28;19925;-75
2021/12/01 11:43:05;;;;;;;;;;;8.00;99.90;;;;;;5057693;28;19925;-75
2021/12/01 11:45:34;;;;;;;;;;;8.00;99.90;;;;;;5046456;28;21301;-75
2021/12/01 11:48:01;;;;;;;;;;;8.00;99.90;;;;;;5048313;28;19925;-75
2021/12/01 11:50:33;;;;;;;;;;;8.00;99.90;;;;;;5046097;28;19929;-75
2021/12/01 11:53:03;;;;;;;;;;;8.00;99.90;;;;;;5042946;28;19931;-75
2021/12/01 11:55:48;;;;;;;;;;;8.00;99.90;;;;;;5058000;28;20299;-75
2021/12/01 11:58:35;;;;;;;;;;;8.00;99.90;;;;;;5047616;28;19998;-75
2021/12/01 12:01:02;;;;;;;;;;;8.10;99.90;;;;;;5050733;28;19925;-75
2021/12/01 12:03:29;;;;;;;;;;;8.10;99.90;;;;;;5042883;28;19929;-75
2021/12/01 12:06:14;;;;;;;;;;;8.10;99.90;;;;;;5039877;28;20011;-75
2021/12/01 12:09:10;;;;;;;;;;;8.10;99.90;;;;;;5046077;28;20011;-76
2021/12/01 12:11:39;;;;;;;;;;;8.00;99.90;;;;;;5027915;28;19935;-76
2021/12/01 12:14:11;;;;;;;;;;;8.00;99.90;;;;;;5025347;28;19930;-76
2021/12/01 12:16:38;;;;;;;;;;;8.10;99.90;;;;;;5011005;28;20407;-76
2021/12/01 12:19:05;;;;;;;;;;;8.10;99.90;;;;;;5027112;28;19929;-76
2021/12/01 12:24:07;;;;;;;;;;;8.20;99.90;;;;;;5027137;28;20314;-76
2021/12/01 12:26:40;;;;;;;;;;;8.10;99.90;;;;;;5024373;28;19967;-76
2021/12/01 12:29:15;;;;;;;;;;;8.20;99.90;;;;;;5023119;28;19976;-76
2021/12/01 12:31:44;;;;;;;;;;;8.20;99.90;;;;;;5024190;28;19932;-76
2021/12/01 12:34:14;;;;;;;;;;;8.20;99.90;;;;;;5011067;28;19931;-76
2021/12/01 12:36:43;;;;;;;;;;;8.30;99.90;;;;;;5016466;28;19925;-76
2021/12/01 12:39:14;;;;;;;;;;;8.30;99.90;;;;;;5017375;28;20095;-76
2021/12/01 12:41:57;;;;;;;;;;;8.30;99.90;;;;;;5021487;28;19931;-76
2021/12/01 12:44:39;;;;;;;;;;;8.40;99.90;;;;;;5023455;28;20027;-76
2021/12/01 12:47:36;;;;;;;;;;;8.40;99.90;;;;;;5025163;28;20287;-76
2021/12/01 12:50:20;;;;;;;;;;;8.40;99.90;;;;;;5043903;28;20015;-77
2021/12/01 12:52:48;;;;;;;;;;;8.40;99.90;;;;;;5043331;28;19925;-76
2021/12/01 12:55:23;;;;;;;;;;;8.30;99.90;;;;;;5044076;28;20309;-77
2021/12/01 12:57:52;;;;;;;;;;;8.20;99.90;;;;;;5042779;28;19978;-77
2021/12/01 13:00:21;;;;;;;;;;;8.20;99.90;;;;;;5047942;28;19943;-77
2021/12/01 13:02:48;;;;;;;;;;;8.30;99.90;;;;;;5043811;28;19925;-77
2021/12/01 13:05:34;;;;;;;;;;;8.30;99.90;;;;;;5043728;28;19924;-74
2021/12/01 13:08:01;;;;;;;;;;;8.30;99.90;;;;;;5038799;28;20011;-75
2021/12/01 13:10:29;;;;;;;;;;;8.30;99.90;;;;;;5041755;28;19929;-75
2021/12/01 13:13:00;;;;;;;;;;;8.20;99.90;;;;;;5059240;28;19949;-75
2021/12/01 13:15:26;;;;;;;;;;;8.20;99.90;;;;;;5046411;28;19971;-75
2021/12/01 13:17:57;;;;;;;;;;;8.20;99.90;;;;;;5043033;28;20611;-75
2021/12/01 13:20:29;;;;;;;;;;;8.20;99.90;;;;;;5047849;28;20119;-75
2021/12/01 13:23:13;;;;;;;;;;;8.20;99.90;;;;;;5046942;28;19931;-75
2021/12/01 13:25:57;;;;;;;;;;;8.30;99.90;;;;;;5039949;28;19933;-75
2021/12/01 13:28:41;;;;;;;;;;;8.30;99.90;;;;;;5056713;28;19972;-75
2021/12/01 13:31:10;;;;;;;;;;;8.40;99.90;;;;;;5045933;28;19932;-75
2021/12/01 13:33:54;;;;;;;;;;;8.30;99.90;;;;;;5044145;28;19935;-75
2021/12/01 13:36:25;;;;;;;;;;;8.30;99.90;;;;;;5045077;28;19928;-77
2021/12/01 13:38:56;;;;;;;;;;;8.30;99.90;;;;;;5052575;28;20050;-75
2021/12/01 13:41:23;;;;;;;;;;;8.30;99.90;;;;;;5045304;28;19952;-75
2021/12/01 13:44:00;;;;;;;;;;;8.20;99.90;;;;;;5046206;28;19928;-75
2021/12/01 13:46:27;;;;;;;;;;;8.20;99.90;;;;;;5062410;28;20290;-75
2021/12/01 13:48:55;;;;;;;;;;;8.30;99.90;;;;;;5041652;28;19964;-75
2021/12/01 13:51:22;;;;;;;;;;;8.30;99.90;;;;;;5050439;28;19925;-75
2021/12/01 13:53:50;;;;;;;;;;;8.30;99.90;;;;;;5046116;28;19935;-75
2021/12/01 13:56:20;;;;;;;;;;;8.40;99.90;;;;;;5047950;28;20031;-76
2021/12/01 13:58:55;;;;;;;;;;;8.40;99.90;;;;;;5042938;28;20036;-74
2021/12/01 14:01:22;;;;;;;;;;;8.40;99.90;;;;;;5049441;28;20495;-75
2021/12/01 14:03:56;;;;;;;;;;;8.40;99.90;;;;;;5041987;28;20388;-76
2021/12/01 14:06:26;;;;;;;;;;;8.50;99.90;;;;;;5042172;28;20266;-75
2021/12/01 14:09:10;;;;;;;;;;;8.60;99.90;;;;;;5039359;28;19939;-76
2021/12/01 14:11:37;;;;;;;;;;;8.70;99.90;;;;;;5042508;28;19924;-75
2021/12/01 14:14:05;;;;;;;;;;;8.60;99.90;;;;;;5051174;28;20371;-76
2021/12/01 14:16:33;;;;;;;;;;;8.60;99.90;;;;;;5041431;28;20118;-76
2021/12/01 14:19:00;;;;;;;;;;;8.60;99.90;;;;;;5046083;28;19932;-76
2021/12/01 14:21:28;;;;;;;;;;;8.50;99.90;;;;;;5057356;28;19947;-76
2021/12/01 14:23:56;;;;;;;;;;;8.50;99.90;;;;;;5051253;28;19963;-76
2021/12/01 14:26:28;;;;;;;;;;;8.50;99.90;;;;;;5047032;28;19939;-76
2021/12/01 14:28:56;;;;;;;;;;;8.40;99.90;;;;;;5049408;28;19928;-76
2021/12/01 14:31:23;;;;;;;;;;;8.40;99.90;;;;;;5042870;28;20579;-76
2021/12/01 14:34:00;;;;;;;;;;;8.40;99.90;;;;;;5044819;28;19977;-77
2021/12/01 14:36:27;;;;;;;;;;;8.40;99.90;;;;;;5049267;28;19925;-76
2021/12/01 14:38:54;;;;;;;;;;;8.30;99.90;;;;;;5044621;28;19943;-77
2021/12/01 14:41:21;;;;;;;;;;;8.20;99.90;;;;;;5039457;28;20211;-75
2021/12/01 14:43:55;;;;;;;;;;;8.20;99.90;;;;;;5047429;28;19932;-77
2021/12/01 14:46:22;;;;;;;;;;;8.20;99.90;;;;;;5048772;28;19934;-76
2021/12/01 14:48:58;;;;;;;;;;;8.20;99.90;;;;;;5044508;28;20385;-75
2021/12/01 14:51:44;;;;;;;;;;;8.10;99.90;;;;;;5052204;28;20379;-75
2021/12/01 14:54:19;;;;;;;;;;;8.10;99.90;;;;;;5049093;28;20164;-76